Subic Bay International Airport
RPLB : now visible

Airfield :











YOU CAN JOIN US ON...

 
LOGIN :

Register | Disclaimer

   EN    FR    IT 

 









Legend :    VFR   Marginal VFR   IFR   Intensive IFR   Very Intensive IFR
Visi :
Ceiling :
>= 8 km
>= 3000ft
5 to 8 km
1000 to 3000 ft
1500m to 5 km
500 to 1000 ft
800 to 1500m
200 to 500 ft
< 800m
< 200 ft
Symbols :   Thunderstorms  Fog  Heavy snow  Heavy precipitations  Wind > 20 kt






- Airport Elevation : 64 ft
- IATA code : SFS


RPLB - Subic Bay International

CURRENT METAR :
  • 150900Z 22007KT 9999 SCT018 BKN080 28/24 Q1007 NOSIG RMK A2974

EXPIRED METARs :
  • 150800Z 20008KT 9999 SCT018 BKN080 28/24 Q1006 NOSIG RMK A2971
  • 150700Z 22011KT 9999 SCT018 BKN080 28/24 Q1006 NOSIG RMK A2971

TAF TAF RPLB
Valid from the 15 at 06:00 until the 16 at 06:00 UTC


150500Z 1506/1606 19006KT 9999 FEW018 SCT080 OVC280 TX29/1506Z TN25/1521Z
TEMPO 1506/1512 21010KT 5000 -TSRA FEW015CB SCT016 OVC070
RPHI FIR / Asia



MET'MAP, your aeronautical weather chart ! - Copyright ORBIFLY December 2007 - Disclaimer

ORBIFLY MET'MAP TEAM :

Programming & Development : Alexandra Zaïnal
Original concept : Baudouin d'Aumeries
Technical & hardware support : Manuel Goepfert
Assistance : Marc-Olivier Méhu




SOURCES & CREDITS :

   NOAA       Earth
Advisory